createdAt,value
2019-05-26T00:01:32.488Z,14.30
2019-05-26T00:04:02.512Z,14.20
2019-05-26T00:06:32.336Z,14.20
2019-05-26T00:09:02.071Z,14.20
2019-05-26T00:11:32.332Z,14.10
2019-05-26T00:14:02.262Z,14.10
2019-05-26T00:16:32.518Z,14.10
2019-05-26T00:19:01.792Z,14.10
2019-05-26T00:21:31.741Z,14.10
2019-05-26T00:24:01.046Z,14.20
2019-05-26T00:26:30.951Z,14.10
2019-05-26T00:29:00.550Z,14.20
2019-05-26T00:31:29.832Z,14.20
2019-05-26T00:33:59.879Z,14.10
2019-05-26T00:36:29.163Z,14.10
2019-05-26T00:38:59.138Z,14.20
2019-05-26T00:41:29.144Z,14.10
2019-05-26T00:43:58.696Z,14.20
2019-05-26T00:46:28.732Z,14.10
2019-05-26T00:48:58.690Z,14.20
2019-05-26T00:51:28.323Z,14.20
2019-05-26T00:53:58.146Z,14.20
2019-05-26T00:56:28.413Z,14.20
2019-05-26T00:58:58.372Z,14.10
2019-05-26T01:01:27.922Z,14.10
2019-05-26T01:03:57.798Z,14.20
2019-05-26T01:06:27.718Z,14.20
2019-05-26T01:08:57.735Z,14.20
2019-05-26T01:11:27.664Z,14.30
2019-05-26T01:13:57.296Z,14.20
2019-05-26T01:16:27.786Z,14.20
2019-05-26T01:18:57.808Z,14.20
2019-05-26T01:21:27.334Z,14.10
2019-05-26T01:23:56.576Z,14.20
2019-05-26T01:26:26.133Z,14.20
2019-05-26T01:28:55.387Z,14.20
2019-05-26T01:31:24.638Z,14.20
2019-05-26T01:33:54.912Z,14.20
2019-05-26T01:36:24.531Z,14.20
2019-05-26T01:38:54.175Z,14.20
2019-05-26T01:41:24.152Z,14.20
2019-05-26T01:43:54.116Z,14.20
2019-05-26T01:46:24.348Z,14.10
2019-05-26T01:48:53.644Z,14.10
2019-05-26T01:51:23.212Z,14.10
2019-05-26T01:53:52.480Z,14.10
2019-05-26T01:56:22.488Z,14.10
2019-05-26T01:58:52.512Z,14.00
2019-05-26T02:01:22.778Z,14.00
2019-05-26T02:03:52.349Z,14.10
2019-05-26T02:06:21.979Z,14.10
2019-05-26T02:08:51.931Z,14.00
2019-05-26T02:11:21.791Z,14.00
2019-05-26T02:13:51.782Z,14.10
2019-05-26T02:16:21.292Z,14.00
2019-05-26T02:18:51.189Z,14.00
2019-05-26T02:21:21.413Z,14.00
2019-05-26T02:23:51.023Z,14.00
2019-05-26T02:26:20.288Z,14.00
2019-05-26T02:28:50.544Z,14.00
2019-05-26T02:31:20.579Z,14.00
2019-05-26T02:33:50.522Z,14.00
2019-05-26T02:36:19.731Z,14.10
2019-05-26T02:39:02.010Z,14.00
2019-05-26T02:41:21.224Z,14.00
2019-05-26T02:43:50.784Z,14.00
2019-05-26T02:46:21.263Z,14.00
2019-05-26T02:48:50.833Z,14.00
2019-05-26T02:51:20.740Z,13.90
2019-05-26T02:53:50.725Z,13.90
2019-05-26T02:56:20.691Z,13.90
2019-05-26T02:58:50.263Z,13.90
2019-05-26T03:01:20.188Z,13.80
2019-05-26T03:03:49.804Z,13.90
2019-05-26T03:06:18.967Z,13.90
2019-05-26T03:08:48.653Z,13.80
2019-05-26T03:11:18.876Z,13.80
2019-05-26T03:13:48.454Z,13.80
2019-05-26T03:16:18.228Z,13.80
2019-05-26T03:18:47.786Z,13.80
2019-05-26T03:21:17.744Z,13.80
2019-05-26T03:23:46.986Z,13.80
2019-05-26T03:26:17.024Z,13.80
2019-05-26T03:28:46.579Z,13.80
2019-05-26T03:31:16.145Z,13.80
2019-05-26T03:33:45.753Z,13.80
2019-05-26T03:36:15.395Z,13.80
2019-05-26T03:38:45.472Z,13.80
2019-05-26T03:41:15.512Z,13.90
2019-05-26T03:43:46.031Z,13.80
2019-05-26T03:46:21.901Z,13.80
2019-05-26T03:48:51.677Z,13.80
2019-05-26T03:51:20.908Z,13.80
2019-05-26T03:53:50.542Z,13.90
2019-05-26T03:56:20.117Z,13.90
2019-05-26T03:58:50.392Z,13.80
2019-05-26T04:01:19.691Z,13.80
2019-05-26T04:03:49.459Z,13.80
2019-05-26T04:06:19.099Z,13.90
2019-05-26T04:08:48.825Z,13.90
2019-05-26T04:11:18.369Z,13.90
2019-05-26T04:13:47.998Z,13.90
2019-05-26T04:16:17.316Z,13.90
2019-05-26T04:18:47.669Z,13.90
2019-05-26T04:21:16.952Z,13.90
2019-05-26T04:23:46.538Z,13.90
2019-05-26T04:26:16.073Z,13.90
2019-05-26T04:28:46.131Z,13.90
2019-05-26T04:31:15.668Z,14.00
2019-05-26T04:33:45.341Z,13.90
2019-05-26T04:36:15.011Z,14.00
2019-05-26T04:38:44.693Z,14.10
2019-05-26T04:41:14.303Z,14.20
2019-05-26T04:43:44.287Z,14.20
2019-05-26T04:46:13.902Z,14.30
2019-05-26T04:48:43.899Z,14.40
2019-05-26T04:51:13.983Z,14.40
2019-05-26T04:53:43.872Z,14.50
2019-05-26T04:56:13.473Z,14.60
2019-05-26T04:58:42.741Z,14.60
2019-05-26T05:01:12.764Z,14.60
2019-05-26T05:03:42.698Z,14.70
2019-05-26T05:06:11.959Z,14.80
2019-05-26T05:08:41.581Z,14.80
2019-05-26T05:11:11.755Z,14.80
2019-05-26T05:13:41.724Z,14.90
2019-05-26T05:16:10.920Z,14.90
2019-05-26T05:18:40.493Z,14.90
2019-05-26T05:21:10.487Z,15.00
2019-05-26T05:23:40.785Z,15.10
2019-05-26T05:26:11.096Z,15.10
2019-05-26T05:28:40.389Z,15.20
2019-05-26T05:31:10.402Z,15.20
2019-05-26T05:33:39.927Z,15.30
2019-05-26T05:36:10.504Z,15.30
2019-05-26T05:38:40.543Z,15.30
2019-05-26T05:41:10.101Z,15.30
2019-05-26T05:43:40.104Z,15.40
2019-05-26T05:46:09.716Z,15.50
2019-05-26T05:48:39.355Z,15.60
2019-05-26T05:51:08.643Z,15.70
2019-05-26T05:53:38.147Z,15.60
2019-05-26T05:56:08.092Z,15.70
2019-05-26T05:58:37.979Z,15.70
2019-05-26T06:01:07.323Z,15.80
2019-05-26T06:03:36.586Z,15.90
2019-05-26T06:06:05.838Z,15.90
2019-05-26T06:08:35.698Z,16.00
2019-05-26T06:11:16.099Z,16.10
2019-05-26T06:13:36.286Z,16.00
2019-05-26T06:16:05.596Z,16.10
2019-05-26T06:18:35.345Z,16.10
2019-05-26T06:21:04.995Z,16.20
2019-05-26T06:23:36.877Z,16.20
2019-05-26T06:26:05.259Z,16.30
2019-05-26T06:28:34.558Z,16.40
2019-05-26T06:31:04.286Z,16.40
2019-05-26T06:33:33.593Z,16.50
2019-05-26T06:36:03.221Z,16.40
2019-05-26T06:38:32.906Z,16.50
2019-05-26T06:41:02.853Z,16.60
2019-05-26T06:43:32.849Z,16.60
2019-05-26T06:46:02.503Z,16.60
2019-05-26T06:48:33.043Z,16.70
2019-05-26T06:51:02.693Z,16.70
2019-05-26T06:53:37.155Z,16.80
2019-05-26T06:56:04.870Z,16.80
2019-05-26T06:58:34.942Z,16.90
2019-05-26T07:01:04.612Z,16.90
2019-05-26T07:03:34.958Z,17.00
2019-05-26T07:06:04.866Z,17.10
2019-05-26T07:08:34.860Z,17.20
2019-05-26T07:11:04.888Z,17.30
2019-05-26T07:13:34.563Z,17.30
2019-05-26T07:16:04.218Z,17.40
2019-05-26T07:18:33.488Z,17.40
2019-05-26T07:21:02.691Z,17.50
2019-05-26T07:23:32.673Z,17.50
2019-05-26T07:26:02.329Z,17.60
2019-05-26T07:28:31.963Z,17.60
2019-05-26T07:31:01.338Z,17.60
2019-05-26T07:33:30.646Z,17.70
2019-05-26T07:36:00.543Z,17.80
2019-05-26T07:38:30.842Z,17.80
2019-05-26T07:41:00.109Z,17.80
2019-05-26T07:43:31.203Z,17.80
2019-05-26T07:46:01.422Z,17.90
2019-05-26T07:48:30.995Z,18.00
2019-05-26T07:51:01.756Z,18.00
2019-05-26T07:53:31.029Z,17.90
2019-05-26T07:56:01.425Z,17.90
2019-05-26T07:58:31.412Z,18.00
2019-05-26T08:01:01.709Z,18.10
2019-05-26T08:03:31.351Z,18.20
2019-05-26T08:06:01.352Z,18.30
2019-05-26T08:08:31.352Z,18.30
2019-05-26T08:11:01.437Z,18.30
2019-05-26T08:13:31.535Z,18.20
2019-05-26T08:16:00.828Z,18.30
2019-05-26T08:18:30.105Z,18.50
2019-05-26T08:20:59.827Z,18.60
2019-05-26T08:23:29.081Z,18.70
2019-05-26T08:25:58.735Z,18.80
2019-05-26T08:28:28.393Z,18.90
2019-05-26T08:30:58.022Z,19.00
2019-05-26T08:33:27.298Z,19.00
2019-05-26T08:35:56.619Z,19.10
2019-05-26T08:38:26.228Z,19.10
2019-05-26T08:40:56.148Z,19.20
2019-05-26T08:43:25.733Z,19.40
2019-05-26T08:45:54.974Z,19.20
2019-05-26T08:48:24.771Z,19.30
2019-05-26T08:50:54.681Z,19.30
2019-05-26T08:53:24.322Z,19.20
2019-05-26T08:55:54.256Z,19.20
2019-05-26T08:58:23.954Z,19.30
2019-05-26T09:00:53.504Z,19.20
2019-05-26T09:03:23.642Z,19.30
2019-05-26T09:05:54.533Z,19.30
2019-05-26T09:08:24.693Z,19.10
2019-05-26T09:10:55.716Z,19.20
2019-05-26T09:13:25.620Z,19.30
2019-05-26T09:15:55.108Z,19.50
2019-05-26T09:18:24.874Z,19.60
2019-05-26T09:20:54.317Z,19.50
2019-05-26T09:23:23.846Z,19.60
2019-05-26T09:25:54.098Z,19.60
2019-05-26T09:28:26.066Z,19.70
2019-05-26T09:30:55.676Z,19.80
2019-05-26T09:33:25.077Z,19.70
2019-05-26T09:35:54.669Z,19.90
2019-05-26T09:38:25.680Z,19.90
2019-05-26T09:40:54.874Z,19.90
2019-05-26T09:43:24.724Z,20.00
2019-05-26T09:45:54.647Z,20.10
2019-05-26T09:48:24.953Z,20.20
2019-05-26T09:50:54.322Z,20.20
2019-05-26T09:53:24.201Z,20.20
2019-05-26T09:55:54.080Z,20.40
2019-05-26T09:58:24.596Z,20.70
2019-05-26T10:00:54.707Z,20.60
2019-05-26T10:03:24.137Z,20.40
2019-05-26T10:05:54.107Z,20.40
2019-05-26T10:08:24.181Z,20.30
2019-05-26T10:10:54.201Z,20.50
2019-05-26T10:13:31.733Z,20.40
2019-05-26T10:15:55.187Z,20.50
2019-05-26T10:18:24.454Z,20.80
2019-05-26T10:20:54.560Z,20.60
2019-05-26T10:23:24.548Z,20.70
2019-05-26T10:25:53.830Z,21.00
2019-05-26T10:28:23.991Z,21.20
